Time;durP1;ratioP1;P1;durP2;ratioP2;P2;SDS_P1;SDS_P2;PMS_P1;PMS_P2;Temp;Humidity;BMP_temperature;BMP_pressure;BME280_temperature;BME280_humidity;BME280_pressure;Samples;Min_cycle;Max_cycle;Signal;HPM_P1;HPM_P2
2021/11/18 00:00:43;;;;;;;0.50;0.50;;;;;;;;;;5010798;28;20240;-65
2021/11/18 00:03:10;;;;;;;0.50;0.50;;;;;;;;;;5011356;28;20181;-60
2021/11/18 00:05:36;;;;;;;0.40;0.40;;;;;;;;;;5012468;28;20187;-62
2021/11/18 00:08:03;;;;;;;0.40;0.40;;;;;;;;;;5031570;28;20179;-64
2021/11/18 00:10:31;;;;;;;0.40;0.40;;;;;;;;;;5029526;28;20184;-64
2021/11/18 00:12:57;;;;;;;0.50;0.50;;;;;;;;;;5021403;28;20200;-64
2021/11/18 00:15:26;;;;;;;0.40;0.40;;;;;;;;;;5030365;28;20579;-66
2021/11/18 00:17:54;;;;;;;0.40;0.40;;;;;;;;;;5022008;28;20257;-66
2021/11/18 00:20:20;;;;;;;0.50;0.50;;;;;;;;;;5011202;28;20722;-65
2021/11/18 00:22:46;;;;;;;0.50;0.50;;;;;;;;;;5012315;28;20184;-67
2021/11/18 00:25:13;;;;;;;0.50;0.50;;;;;;;;;;5011342;28;20196;-66
2021/11/18 00:27:39;;;;;;;0.50;0.50;;;;;;;;;;5025384;28;20211;-66
2021/11/18 00:30:07;;;;;;;0.40;0.40;;;;;;;;;;5033030;28;20192;-65
2021/11/18 00:32:33;;;;;;;0.40;0.40;;;;;;;;;;5033182;28;20437;-65
2021/11/18 00:34:59;;;;;;;0.50;0.50;;;;;;;;;;5015019;28;20184;-65
2021/11/18 00:37:25;;;;;;;0.50;0.50;;;;;;;;;;5014710;28;20507;-66
2021/11/18 00:39:51;;;;;;;0.50;0.50;;;;;;;;;;5032061;28;20902;-66
2021/11/18 00:42:17;;;;;;;0.50;0.50;;;;;;;;;;5007421;28;20803;-66
2021/11/18 00:44:43;;;;;;;0.50;0.50;;;;;;;;;;5026295;28;20187;-66
2021/11/18 00:47:09;;;;;;;0.50;0.50;;;;;;;;;;5033203;28;20878;-64
2021/11/18 00:49:35;;;;;;;0.50;0.50;;;;;;;;;;5031538;28;20845;-66
2021/11/18 00:52:01;;;;;;;0.50;0.50;;;;;;;;;;5014564;28;20431;-65
2021/11/18 00:54:27;;;;;;;0.50;0.50;;;;;;;;;;5019595;28;20431;-66
2021/11/18 00:56:53;;;;;;;0.40;0.40;;;;;;;;;;5014401;28;20488;-65
2021/11/18 00:59:19;;;;;;;0.40;0.40;;;;;;;;;;5015453;28;20442;-65
2021/11/18 01:01:45;;;;;;;0.40;0.40;;;;;;;;;;5015363;28;20232;-65
2021/11/18 01:04:12;;;;;;;0.40;0.40;;;;;;;;;;5025438;28;20830;-64
2021/11/18 01:06:39;;;;;;;0.50;0.50;;;;;;;;;;5022008;28;20199;-66
2021/11/18 01:09:05;;;;;;;0.40;0.40;;;;;;;;;;5016955;28;20247;-66
2021/11/18 01:11:32;;;;;;;0.50;0.50;;;;;;;;;;5014081;28;20219;-63
2021/11/18 01:13:59;;;;;;;0.40;0.40;;;;;;;;;;5033658;28;20206;-65
2021/11/18 01:16:26;;;;;;;0.50;0.50;;;;;;;;;;5032545;28;20208;-65
2021/11/18 01:18:52;;;;;;;0.47;0.47;;;;;;;;;;5024019;28;20191;-65
2021/11/18 01:21:19;;;;;;;0.50;0.50;;;;;;;;;;5033560;28;20341;-58
2021/11/18 01:23:46;;;;;;;0.50;0.50;;;;;;;;;;5016210;28;20185;-66
2021/11/18 01:26:13;;;;;;;0.50;0.50;;;;;;;;;;5012614;28;20192;-65
2021/11/18 01:28:40;;;;;;;0.50;0.50;;;;;;;;;;5014900;28;20560;-66
2021/11/18 01:31:06;;;;;;;0.50;0.50;;;;;;;;;;5014703;28;20528;-65
2021/11/18 01:33:33;;;;;;;0.50;0.50;;;;;;;;;;5024616;28;20187;-65
2021/11/18 01:35:59;;;;;;;0.50;0.50;;;;;;;;;;5033254;28;20211;-65
2021/11/18 01:38:25;;;;;;;0.40;0.40;;;;;;;;;;5023970;28;20192;-60
2021/11/18 01:40:56;;;;;;;0.40;0.40;;;;;;;;;;5028395;28;20923;-65
2021/11/18 01:43:24;;;;;;;0.50;0.50;;;;;;;;;;4999568;28;20181;-65
2021/11/18 01:45:50;;;;;;;0.40;0.40;;;;;;;;;;5024455;28;20194;-64
2021/11/18 01:48:16;;;;;;;0.50;0.50;;;;;;;;;;5013447;28;20183;-64
2021/11/18 01:50:43;;;;;;;0.50;0.50;;;;;;;;;;5017469;28;20206;-65
2021/11/18 01:53:10;;;;;;;0.40;0.40;;;;;;;;;;5024980;28;20660;-66
2021/11/18 01:55:37;;;;;;;0.50;0.50;;;;;;;;;;5019003;28;20237;-66
2021/11/18 01:58:04;;;;;;;0.50;0.50;;;;;;;;;;5019394;28;20191;-65
2021/11/18 02:00:32;;;;;;;0.50;0.50;;;;;;;;;;5013009;28;20580;-66
2021/11/18 02:02:58;;;;;;;0.40;0.40;;;;;;;;;;5028603;28;20173;-66
2021/11/18 02:05:36;;;;;;;0.50;0.50;;;;;;;;;;5033048;28;20180;-65
2021/11/18 02:08:03;;;;;;;0.40;0.40;;;;;;;;;;5016997;28;20200;-65
2021/11/18 02:10:34;;;;;;;0.50;0.50;;;;;;;;;;5012815;28;20187;-67
2021/11/18 02:13:01;;;;;;;0.40;0.40;;;;;;;;;;5027908;28;20194;-65
2021/11/18 02:15:32;;;;;;;0.50;0.50;;;;;;;;;;5016655;28;20187;-64
2021/11/18 02:17:59;;;;;;;0.40;0.40;;;;;;;;;;5032841;28;20180;-66
2021/11/18 02:20:28;;;;;;;0.50;0.50;;;;;;;;;;5020229;28;20218;-67
2021/11/18 02:22:54;;;;;;;0.50;0.50;;;;;;;;;;5027294;28;20264;-63
2021/11/18 02:25:23;;;;;;;0.50;0.50;;;;;;;;;;5023043;28;20270;-65
2021/11/18 02:27:49;;;;;;;0.50;0.50;;;;;;;;;;5017506;28;20209;-64
2021/11/18 02:30:15;;;;;;;0.50;0.50;;;;;;;;;;5030060;28;20187;-66
2021/11/18 02:32:41;;;;;;;0.40;0.40;;;;;;;;;;5019666;28;20609;-65
2021/11/18 02:35:07;;;;;;;0.50;0.50;;;;;;;;;;5032547;28;20445;-65
2021/11/18 02:37:34;;;;;;;0.50;0.50;;;;;;;;;;5028870;28;20201;-65
2021/11/18 02:40:00;;;;;;;0.50;0.50;;;;;;;;;;5017781;28;20269;-65
2021/11/18 02:42:26;;;;;;;0.50;0.50;;;;;;;;;;5023538;28;20181;-65
2021/11/18 02:44:53;;;;;;;0.50;0.50;;;;;;;;;;5023152;28;20446;-65
2021/11/18 02:47:19;;;;;;;0.50;0.50;;;;;;;;;;5031460;28;20208;-65
2021/11/18 02:49:46;;;;;;;0.40;0.40;;;;;;;;;;5030053;28;20171;-65
2021/11/18 02:52:13;;;;;;;0.40;0.40;;;;;;;;;;5026095;28;20671;-65
2021/11/18 02:54:40;;;;;;;0.40;0.40;;;;;;;;;;5012243;28;20224;-65
2021/11/18 02:57:06;;;;;;;0.40;0.40;;;;;;;;;;5018038;28;20261;-65
2021/11/18 02:59:32;;;;;;;0.43;0.43;;;;;;;;;;5029004;28;20571;-64
2021/11/18 03:01:58;;;;;;;0.50;0.50;;;;;;;;;;5017808;28;20190;-60
2021/11/18 03:04:24;;;;;;;0.50;0.50;;;;;;;;;;5012371;28;20176;-65
2021/11/18 03:06:50;;;;;;;0.60;0.60;;;;;;;;;;5023856;28;20442;-64
2021/11/18 03:09:16;;;;;;;0.50;0.50;;;;;;;;;;5031510;28;20427;-64
2021/11/18 03:11:42;;;;;;;0.50;0.50;;;;;;;;;;5021115;28;20183;-65
2021/11/18 03:14:08;;;;;;;0.50;0.50;;;;;;;;;;5020572;28;20452;-65
2021/11/18 03:16:34;;;;;;;0.50;0.50;;;;;;;;;;5031467;28;20961;-66
2021/11/18 03:19:00;;;;;;;0.47;0.47;;;;;;;;;;5024539;28;20944;-65
2021/11/18 03:21:28;;;;;;;0.50;0.50;;;;;;;;;;5011852;28;20460;-65
2021/11/18 03:23:55;;;;;;;0.50;0.50;;;;;;;;;;5025302;28;20426;-63
2021/11/18 03:26:24;;;;;;;0.40;0.40;;;;;;;;;;5020912;28;20212;-65
2021/11/18 03:28:50;;;;;;;0.50;0.50;;;;;;;;;;5028197;28;20211;-67
2021/11/18 03:31:18;;;;;;;0.50;0.50;;;;;;;;;;5022095;28;20178;-66
2021/11/18 03:33:49;;;;;;;0.40;0.40;;;;;;;;;;5027186;28;20234;-63
2021/11/18 03:36:15;;;;;;;0.40;0.40;;;;;;;;;;5021969;28;20294;-66
2021/11/18 03:38:41;;;;;;;0.50;0.50;;;;;;;;;;5012301;28;20213;-65
2021/11/18 03:41:08;;;;;;;0.50;0.50;;;;;;;;;;5011662;28;20520;-65
2021/11/18 03:43:35;;;;;;;0.50;0.50;;;;;;;;;;5012890;28;20177;-66
2021/11/18 03:46:02;;;;;;;0.40;0.40;;;;;;;;;;5015071;28;20666;-66
2021/11/18 03:48:30;;;;;;;0.40;0.40;;;;;;;;;;5031392;28;20642;-66
2021/11/18 03:50:56;;;;;;;0.40;0.40;;;;;;;;;;5028834;28;20180;-65
2021/11/18 03:53:23;;;;;;;0.50;0.50;;;;;;;;;;5011774;28;20189;-65
2021/11/18 03:55:49;;;;;;;0.50;0.50;;;;;;;;;;5014862;28;20223;-66
2021/11/18 03:58:15;;;;;;;0.40;0.40;;;;;;;;;;4992480;28;20661;-65
2021/11/18 04:00:41;;;;;;;0.40;0.40;;;;;;;;;;4991678;28;20217;-66
2021/11/18 04:03:08;;;;;;;0.50;0.50;;;;;;;;;;5008755;28;20513;-64
2021/11/18 04:05:35;;;;;;;0.50;0.50;;;;;;;;;;5015517;28;20618;-66
2021/11/18 04:08:01;;;;;;;0.40;0.40;;;;;;;;;;5026583;28;20271;-65
2021/11/18 04:10:30;;;;;;;0.40;0.40;;;;;;;;;;5034996;28;20655;-64
2021/11/18 04:12:56;;;;;;;0.40;0.40;;;;;;;;;;5017553;28;20419;-66
2021/11/18 04:15:23;;;;;;;0.50;0.50;;;;;;;;;;5015323;28;20192;-66
2021/11/18 04:17:49;;;;;;;0.40;0.40;;;;;;;;;;5030507;28;20215;-65
2021/11/18 04:20:15;;;;;;;0.40;0.40;;;;;;;;;;5034393;28;20211;-66
2021/11/18 04:22:42;;;;;;;0.50;0.50;;;;;;;;;;5030727;28;20953;-65
2021/11/18 04:25:09;;;;;;;0.50;0.50;;;;;;;;;;5015639;28;20211;-63
2021/11/18 04:27:35;;;;;;;0.50;0.50;;;;;;;;;;5021222;28;20281;-65
2021/11/18 04:30:01;;;;;;;0.40;0.40;;;;;;;;;;5029992;28;20185;-62
2021/11/18 04:32:28;;;;;;;0.40;0.40;;;;;;;;;;5014913;28;20169;-66
2021/11/18 04:34:55;;;;;;;0.50;0.50;;;;;;;;;;5028603;28;20271;-66
2021/11/18 04:37:21;;;;;;;0.50;0.50;;;;;;;;;;5034559;28;20275;-65
2021/11/18 04:39:48;;;;;;;0.50;0.50;;;;;;;;;;5021533;28;20206;-65
2021/11/18 04:42:15;;;;;;;0.40;0.40;;;;;;;;;;5014590;28;20208;-65
2021/11/18 04:44:41;;;;;;;0.40;0.40;;;;;;;;;;5025074;28;20203;-66
2021/11/18 04:47:10;;;;;;;0.50;0.50;;;;;;;;;;5032628;28;20586;-64
2021/11/18 04:49:37;;;;;;;0.45;0.45;;;;;;;;;;5034629;28;20164;-64
2021/11/18 04:52:03;;;;;;;0.40;0.40;;;;;;;;;;5028387;28;20184;-65
2021/11/18 04:54:29;;;;;;;0.50;0.50;;;;;;;;;;5034424;28;20176;-67
2021/11/18 04:56:56;;;;;;;0.50;0.50;;;;;;;;;;5018974;28;20216;-66
2021/11/18 04:59:22;;;;;;;0.50;0.50;;;;;;;;;;5014608;28;20182;-67
2021/11/18 05:01:47;;;;;;;0.40;0.40;;;;;;;;;;5026316;28;20183;-65
2021/11/18 05:04:14;;;;;;;0.40;0.40;;;;;;;;;;5014113;28;20501;-65
2021/11/18 05:06:39;;;;;;;0.50;0.50;;;;;;;;;;5025130;28;21139;-66
2021/11/18 05:09:06;;;;;;;0.50;0.50;;;;;;;;;;5034079;28;20183;-65
2021/11/18 05:11:33;;;;;;;0.50;0.50;;;;;;;;;;5032183;28;20429;-67
2021/11/18 05:13:59;;;;;;;0.50;0.50;;;;;;;;;;5033496;28;20211;-66
2021/11/18 05:16:25;;;;;;;0.40;0.40;;;;;;;;;;5034013;28;20718;-66
2021/11/18 05:18:51;;;;;;;0.50;0.50;;;;;;;;;;5033986;28;20895;-66
2021/11/18 05:21:22;;;;;;;0.50;0.50;;;;;;;;;;5033545;28;20250;-67
2021/11/18 05:23:49;;;;;;;0.40;0.40;;;;;;;;;;5033881;28;20413;-66
2021/11/18 05:26:16;;;;;;;0.40;0.40;;;;;;;;;;5033621;28;20200;-66
2021/11/18 05:28:43;;;;;;;0.50;0.50;;;;;;;;;;5033930;28;20590;-64
2021/11/18 05:31:09;;;;;;;0.50;0.50;;;;;;;;;;5033526;28;20190;-66
2021/11/18 05:33:35;;;;;;;0.50;0.50;;;;;;;;;;5033571;28;20178;-65
2021/11/18 05:36:01;;;;;;;0.40;0.40;;;;;;;;;;5033340;28;20203;-66
2021/11/18 05:38:27;;;;;;;0.40;0.40;;;;;;;;;;5033533;28;20890;-66
2021/11/18 05:40:54;;;;;;;0.50;0.50;;;;;;;;;;5032933;28;20206;-66
2021/11/18 05:43:21;;;;;;;0.40;0.40;;;;;;;;;;5033452;28;20582;-65
2021/11/18 05:45:47;;;;;;;0.50;0.50;;;;;;;;;;5033377;28;20203;-65
2021/11/18 05:48:15;;;;;;;0.50;0.50;;;;;;;;;;5033403;28;20179;-66
2021/11/18 05:50:46;;;;;;;0.40;0.40;;;;;;;;;;5033127;28;20183;-66
2021/11/18 05:53:13;;;;;;;0.40;0.40;;;;;;;;;;5033382;28;20200;-66
2021/11/18 05:55:39;;;;;;;0.45;0.45;;;;;;;;;;5032933;28;20199;-64
2021/11/18 05:58:05;;;;;;;0.40;0.40;;;;;;;;;;5039077;22;20230;-65
2021/11/18 06:00:32;;;;;;;0.40;0.40;;;;;;;;;;5012305;28;20212;-65
2021/11/18 06:02:58;;;;;;;0.40;0.40;;;;;;;;;;5013284;28;20800;-65
2021/11/18 06:05:25;;;;;;;0.40;0.40;;;;;;;;;;5013181;28;20177;-65
2021/11/18 06:07:52;;;;;;;0.50;0.50;;;;;;;;;;5012094;28;20256;-64
2021/11/18 06:10:18;;;;;;;0.40;0.40;;;;;;;;;;5012437;28;20694;-64
2021/11/18 06:12:44;;;;;;;0.40;0.40;;;;;;;;;;5012873;28;20185;-64
2021/11/18 06:15:11;;;;;;;0.40;0.40;;;;;;;;;;5012108;28;20184;-64
2021/11/18 06:17:37;;;;;;;0.40;0.40;;;;;;;;;;5012509;28;20201;-64
2021/11/18 06:20:04;;;;;;;0.40;0.40;;;;;;;;;;5012470;28;20204;-64
2021/11/18 06:22:30;;;;;;;0.40;0.40;;;;;;;;;;5011569;28;20174;-64
2021/11/18 06:24:56;;;;;;;0.40;0.40;;;;;;;;;;5011956;28;20629;-65
2021/11/18 06:27:22;;;;;;;0.45;0.45;;;;;;;;;;5011421;28;20494;-64
2021/11/18 06:29:49;;;;;;;0.40;0.40;;;;;;;;;;5012681;28;20185;-64
2021/11/18 06:32:15;;;;;;;0.50;0.50;;;;;;;;;;5011892;28;20184;-64
2021/11/18 06:34:41;;;;;;;0.50;0.50;;;;;;;;;;5012465;28;20189;-64
2021/11/18 06:37:08;;;;;;;0.40;0.40;;;;;;;;;;5014894;28;20192;-64
2021/11/18 06:39:35;;;;;;;0.40;0.40;;;;;;;;;;5011250;28;20560;-64
2021/11/18 06:42:02;;;;;;;0.40;0.40;;;;;;;;;;5011746;28;20181;-64
2021/11/18 06:44:28;;;;;;;0.60;0.60;;;;;;;;;;5011643;28;20184;-64
2021/11/18 06:46:54;;;;;;;0.40;0.40;;;;;;;;;;5012198;28;20192;-64
2021/11/18 06:49:19;;;;;;;0.40;0.40;;;;;;;;;;5010989;28;21004;-65
2021/11/18 06:51:46;;;;;;;0.50;0.50;;;;;;;;;;5011475;28;20431;-64
2021/11/18 06:54:14;;;;;;;0.50;0.50;;;;;;;;;;5009938;28;20428;-64
2021/11/18 06:56:40;;;;;;;0.50;0.50;;;;;;;;;;5011536;28;20216;-64
2021/11/18 06:59:07;;;;;;;0.50;0.50;;;;;;;;;;5011553;28;20264;-64
2021/11/18 07:01:33;;;;;;;0.50;0.50;;;;;;;;;;5011566;28;20204;-65
2021/11/18 07:03:59;;;;;;;0.50;0.50;;;;;;;;;;5011865;28;20184;-64
2021/11/18 07:06:25;;;;;;;0.40;0.40;;;;;;;;;;5012015;28;20269;-64
2021/11/18 07:08:52;;;;;;;0.50;0.50;;;;;;;;;;5010636;28;20176;-65
2021/11/18 07:11:19;;;;;;;0.50;0.50;;;;;;;;;;5028000;28;20194;-65
2021/11/18 07:13:46;;;;;;;0.50;0.50;;;;;;;;;;5031727;28;20172;-65
2021/11/18 07:16:14;;;;;;;0.50;0.50;;;;;;;;;;5031577;28;20200;-65
2021/11/18 07:18:40;;;;;;;0.40;0.40;;;;;;;;;;5031603;28;20181;-65
2021/11/18 07:21:06;;;;;;;0.57;0.57;;;;;;;;;;5031351;28;20273;-65
2021/11/18 07:23:32;;;;;;;0.50;0.50;;;;;;;;;;5031512;28;20221;-65
2021/11/18 07:25:59;;;;;;;0.50;0.50;;;;;;;;;;5031485;28;20699;-65
2021/11/18 07:28:26;;;;;;;0.40;0.40;;;;;;;;;;5031365;28;20222;-65
2021/11/18 07:30:53;;;;;;;0.40;0.40;;;;;;;;;;5031414;28;20251;-65
2021/11/18 07:33:20;;;;;;;0.50;0.50;;;;;;;;;;5030089;28;20227;-65
2021/11/18 07:35:46;;;;;;;0.40;0.40;;;;;;;;;;5031377;28;20179;-67
2021/11/18 07:38:12;;;;;;;0.40;0.40;;;;;;;;;;5031380;28;20219;-67
2021/11/18 07:40:39;;;;;;;0.40;0.40;;;;;;;;;;5031175;28;20249;-67
2021/11/18 07:43:08;;;;;;;0.50;0.50;;;;;;;;;;5030106;28;20485;-66
2021/11/18 07:45:34;;;;;;;0.40;0.40;;;;;;;;;;5031359;28;20259;-66
2021/11/18 07:48:00;;;;;;;0.40;0.40;;;;;;;;;;5031169;28;20231;-67
2021/11/18 07:50:26;;;;;;;0.40;0.40;;;;;;;;;;5024604;28;20447;-67
2021/11/18 07:52:52;;;;;;;0.40;0.40;;;;;;;;;;5011437;28;20208;-65
2021/11/18 07:55:20;;;;;;;0.40;0.40;;;;;;;;;;5011249;28;20405;-65
2021/11/18 07:57:46;;;;;;;0.40;0.40;;;;;;;;;;5011153;28;20939;-65
2021/11/18 08:00:13;;;;;;;0.40;0.40;;;;;;;;;;5011101;28;20206;-65
2021/11/18 08:02:40;;;;;;;0.40;0.40;;;;;;;;;;5011470;28;20506;-65
2021/11/18 08:05:06;;;;;;;0.40;0.40;;;;;;;;;;5011439;28;20173;-64
2021/11/18 08:07:32;;;;;;;0.40;0.40;;;;;;;;;;5009666;28;20189;-64
2021/11/18 08:09:58;;;;;;;0.40;0.40;;;;;;;;;;5010926;28;20264;-65
2021/11/18 08:12:24;;;;;;;0.50;0.50;;;;;;;;;;5011158;28;20419;-64
2021/11/18 08:14:50;;;;;;;0.40;0.40;;;;;;;;;;5011264;28;20415;-64
2021/11/18 08:17:16;;;;;;;0.50;0.50;;;;;;;;;;5011133;28;20839;-65
2021/11/18 08:19:42;;;;;;;0.40;0.40;;;;;;;;;;5010919;28;20900;-65
2021/11/18 08:22:09;;;;;;;0.50;0.50;;;;;;;;;;5010498;28;20405;-65
2021/11/18 08:24:35;;;;;;;0.60;0.60;;;;;;;;;;5011132;28;20412;-65
2021/11/18 08:27:02;;;;;;;0.43;0.43;;;;;;;;;;5011130;28;20220;-65
2021/11/18 08:29:28;;;;;;;0.47;0.47;;;;;;;;;;5011162;28;20221;-65
2021/11/18 08:31:55;;;;;;;0.45;0.45;;;;;;;;;;5010359;28;20723;-65
2021/11/18 08:34:22;;;;;;;0.50;0.50;;;;;;;;;;5011064;28;20518;-64
2021/11/18 08:36:50;;;;;;;0.40;0.40;;;;;;;;;;5010077;28;20636;-65
2021/11/18 08:39:22;;;;;;;0.50;0.50;;;;;;;;;;5011179;28;20172;-64
2021/11/18 08:41:48;;;;;;;0.40;0.40;;;;;;;;;;5010935;28;20207;-64
2021/11/18 08:44:16;;;;;;;0.40;0.40;;;;;;;;;;5010227;28;20635;-64
2021/11/18 08:46:42;;;;;;;0.50;0.50;;;;;;;;;;5010756;28;20197;-64
2021/11/18 08:49:08;;;;;;;0.40;0.40;;;;;;;;;;5014337;28;20184;-64
2021/11/18 08:51:34;;;;;;;0.50;0.50;;;;;;;;;;5014036;28;20185;-64
2021/11/18 08:54:03;;;;;;;0.40;0.40;;;;;;;;;;5014199;28;20504;-64
2021/11/18 08:56:29;;;;;;;0.40;0.40;;;;;;;;;;5014036;28;20336;-65
2021/11/18 08:58:58;;;;;;;0.40;0.40;;;;;;;;;;5014248;28;20182;-64
2021/11/18 09:01:32;;;;;;;0.50;0.50;;;;;;;;;;5014052;28;20197;-64
2021/11/18 09:04:02;;;;;;;0.40;0.40;;;;;;;;;;5014266;28;20177;-64
2021/11/18 09:06:28;;;;;;;0.50;0.50;;;;;;;;;;5014360;28;20615;-65
2021/11/18 09:08:54;;;;;;;0.45;0.45;;;;;;;;;;5014295;28;20248;-65
2021/11/18 09:11:20;;;;;;;0.50;0.50;;;;;;;;;;5013947;28;20654;-65
2021/11/18 09:13:46;;;;;;;0.43;0.43;;;;;;;;;;5014058;28;20185;-65
2021/11/18 09:16:13;;;;;;;0.50;0.50;;;;;;;;;;5012565;28;20188;-65
2021/11/18 09:18:40;;;;;;;0.40;0.40;;;;;;;;;;5012808;28;20182;-65
2021/11/18 09:21:07;;;;;;;0.40;0.40;;;;;;;;;;5013682;28;20193;-65
2021/11/18 09:23:35;;;;;;;0.40;0.40;;;;;;;;;;5013986;28;20182;-65
2021/11/18 09:26:01;;;;;;;0.40;0.40;;;;;;;;;;5013979;28;20637;-65
2021/11/18 09:28:27;;;;;;;0.40;0.40;;;;;;;;;;5013998;28;20173;-65
2021/11/18 09:30:57;;;;;;;0.40;0.40;;;;;;;;;;5013294;28;20181;-65
2021/11/18 09:33:23;;;;;;;0.40;0.40;;;;;;;;;;5012501;28;20272;-67
2021/11/18 09:35:51;;;;;;;0.55;0.55;;;;;;;;;;5013814;28;20585;-67
2021/11/18 09:38:20;;;;;;;0.50;0.50;;;;;;;;;;5013453;28;20201;-65
2021/11/18 09:40:52;;;;;;;0.50;0.50;;;;;;;;;;5013244;28;20280;-65
2021/11/18 09:43:37;;;;;;;0.40;0.40;;;;;;;;;;5013284;28;20172;-65
2021/11/18 09:46:22;;;;;;;0.40;0.40;;;;;;;;;;5013560;28;20256;-67
2021/11/18 09:49:09;;;;;;;0.50;0.50;;;;;;;;;;5013610;28;20188;-65
2021/11/18 09:51:54;;;;;;;0.50;0.50;;;;;;;;;;5011908;28;20181;-65
2021/11/18 09:54:22;;;;;;;0.50;0.50;;;;;;;;;;5013484;28;20675;-65
2021/11/18 09:57:06;;;;;;;0.40;0.40;;;;;;;;;;5013416;28;20294;-65
2021/11/18 09:59:51;;;;;;;0.40;0.40;;;;;;;;;;5013240;28;20180;-65
2021/11/18 10:02:20;;;;;;;0.40;0.40;;;;;;;;;;5013055;28;20235;-65
2021/11/18 10:04:46;;;;;;;0.40;0.40;;;;;;;;;;5013119;28;20174;-65
2021/11/18 10:07:25;;;;;;;0.43;0.43;;;;;;;;;;5013268;28;20284;-65
2021/11/18 10:10:04;;;;;;;0.40;0.40;;;;;;;;;;5013636;28;20822;-65
2021/11/18 10:12:33;;;;;;;0.40;0.40;;;;;;;;;;5013094;28;20661;-65
2021/11/18 10:15:02;;;;;;;0.40;0.40;;;;;;;;;;5011874;28;20181;-65
2021/11/18 10:17:36;;;;;;;0.40;0.40;;;;;;;;;;5012982;28;20205;-65
2021/11/18 10:20:02;;;;;;;0.40;0.40;;;;;;;;;;5012995;28;20197;-65
2021/11/18 10:22:30;;;;;;;0.50;0.50;;;;;;;;;;5012772;28;20174;-65
2021/11/18 10:24:57;;;;;;;0.40;0.40;;;;;;;;;;5012790;28;20177;-65
2021/11/18 10:27:49;;;;;;;0.40;0.40;;;;;;;;;;5012784;28;20198;-65
2021/11/18 10:30:18;;;;;;;0.50;0.50;;;;;;;;;;5009818;28;20204;-65
2021/11/18 10:32:44;;;;;;;0.43;0.43;;;;;;;;;;5012969;28;20260;-65
2021/11/18 10:35:10;;;;;;;0.40;0.40;;;;;;;;;;5012706;28;20257;-66
2021/11/18 10:37:40;;;;;;;0.40;0.40;;;;;;;;;;5012550;28;20432;-65
2021/11/18 10:40:12;;;;;;;0.40;0.40;;;;;;;;;;5011100;28;20839;-66
2021/11/18 10:42:40;;;;;;;0.50;0.50;;;;;;;;;;5012486;28;20181;-65
2021/11/18 10:45:08;;;;;;;0.40;0.40;;;;;;;;;;5012544;28;20174;-65
2021/11/18 10:47:43;;;;;;;0.40;0.40;;;;;;;;;;5012447;28;20201;-66
2021/11/18 10:50:27;;;;;;;0.40;0.40;;;;;;;;;;5012285;28;20173;-65
2021/11/18 10:53:11;;;;;;;0.40;0.40;;;;;;;;;;5012493;28;20201;-66
2021/11/18 10:55:38;;;;;;;0.40;0.40;;;;;;;;;;5012278;28;20208;-65
2021/11/18 10:58:10;;;;;;;0.40;0.40;;;;;;;;;;5012108;28;20216;-66
2021/11/18 11:00:41;;;;;;;0.40;0.40;;;;;;;;;;5011869;28;20201;-65
2021/11/18 11:03:22;;;;;;;0.40;0.40;;;;;;;;;;5012220;28;20200;-65
2021/11/18 11:05:48;;;;;;;0.40;0.40;;;;;;;;;;5012128;28;20172;-65
2021/11/18 11:08:22;;;;;;;0.40;0.40;;;;;;;;;;5010143;28;20677;-65
2021/11/18 11:10:51;;;;;;;0.40;0.40;;;;;;;;;;5011069;28;20227;-65
2021/11/18 11:13:19;;;;;;;0.45;0.45;;;;;;;;;;5012257;28;20596;-66
2021/11/18 11:15:45;;;;;;;0.40;0.40;;;;;;;;;;5010746;28;20204;-65
2021/11/18 11:18:27;;;;;;;0.40;0.40;;;;;;;;;;5011825;28;20201;-66
2021/11/18 11:21:02;;;;;;;0.50;0.50;;;;;;;;;;5011703;28;20499;-66
2021/11/18 11:23:28;;;;;;;0.50;0.50;;;;;;;;;;5011856;28;20173;-65
2021/11/18 11:25:54;;;;;;;0.40;0.40;;;;;;;;;;5011801;28;20216;-66
2021/11/18 11:28:30;;;;;;;0.40;0.40;;;;;;;;;;5010496;28;20447;-65
2021/11/18 11:31:05;;;;;;;0.40;0.40;;;;;;;;;;5011536;28;20181;-65
2021/11/18 11:33:54;;;;;;;0.40;0.40;;;;;;;;;;5010788;28;20530;-65
2021/11/18 11:36:26;;;;;;;0.38;0.38;;;;;;;;;;5003902;28;20228;-65
2021/11/18 11:39:10;;;;;;;0.40;0.40;;;;;;;;;;5011757;28;20177;-65
2021/11/18 11:41:56;;;;;;;0.40;0.40;;;;;;;;;;5010036;28;20562;-65
2021/11/18 11:44:30;;;;;;;0.40;0.40;;;;;;;;;;5011244;28;20178;-65
2021/11/18 11:47:06;;;;;;;0.40;0.40;;;;;;;;;;5011568;28;20565;-65
2021/11/18 11:49:35;;;;;;;0.40;0.40;;;;;;;;;;5011412;28;20268;-65
2021/11/18 11:52:21;;;;;;;0.40;0.40;;;;;;;;;;5011519;28;20200;-66
2021/11/18 11:54:55;;;;;;;0.40;0.40;;;;;;;;;;5004698;28;20193;-66
2021/11/18 11:57:33;;;;;;;0.40;0.40;;;;;;;;;;5046626;22;20316;-66
2021/11/18 12:00:08;;;;;;;0.50;0.50;;;;;;;;;;5050991;28;20195;-64
2021/11/18 12:02:40;;;;;;;0.40;0.40;;;;;;;;;;5050966;28;20210;-66
2021/11/18 12:05:12;;;;;;;0.40;0.40;;;;;;;;;;5051057;28;20172;-66
2021/11/18 12:07:43;;;;;;;0.40;0.40;;;;;;;;;;5041379;28;20193;-66
2021/11/18 12:10:27;;;;;;;0.40;0.40;;;;;;;;;;5031096;28;20229;-65
2021/11/18 12:12:56;;;;;;;0.40;0.40;;;;;;;;;;5030068;28;20264;-66
2021/11/18 12:15:23;;;;;;;0.40;0.40;;;;;;;;;;5031024;28;20251;-66
2021/11/18 12:18:08;;;;;;;0.40;0.40;;;;;;;;;;5031128;28;20223;-65
2021/11/18 12:20:35;;;;;;;0.40;0.40;;;;;;;;;;5030929;28;20188;-66
2021/11/18 12:23:04;;;;;;;0.40;0.40;;;;;;;;;;5033013;28;20191;-66
2021/11/18 12:25:33;;;;;;;0.40;0.40;;;;;;;;;;5034929;28;20209;-66
2021/11/18 12:28:05;;;;;;;0.47;0.47;;;;;;;;;;5034720;28;20283;-66
2021/11/18 12:30:32;;;;;;;0.40;0.40;;;;;;;;;;5034534;28;20169;-66
2021/11/18 12:33:21;;;;;;;0.40;0.40;;;;;;;;;;5034749;28;20255;-66
2021/11/18 12:35:49;;;;;;;0.50;0.50;;;;;;;;;;5015340;28;20222;-66
2021/11/18 12:38:28;;;;;;;0.40;0.40;;;;;;;;;;5033340;28;20235;-66
2021/11/18 12:41:12;;;;;;;0.40;0.40;;;;;;;;;;5034314;28;20239;-66
2021/11/18 12:43:41;;;;;;;0.40;0.40;;;;;;;;;;5034700;28;20247;-66
2021/11/18 12:46:10;;;;;;;0.40;0.40;;;;;;;;;;5034666;28;20678;-66
2021/11/18 12:48:55;;;;;;;0.40;0.40;;;;;;;;;;5034422;28;20280;-66
2021/11/18 12:51:46;;;;;;;0.40;0.40;;;;;;;;;;5034483;28;20180;-66
2021/11/18 12:54:13;;;;;;;0.40;0.40;;;;;;;;;;5034524;28;20217;-64
2021/11/18 12:56:56;;;;;;;0.40;0.40;;;;;;;;;;5034280;28;20667;-66
2021/11/18 12:59:43;;;;;;;0.40;0.40;;;;;;;;;;5034372;28;20211;-66
2021/11/18 13:02:14;;;;;;;0.50;0.50;;;;;;;;;;5034033;28;20180;-65
2021/11/18 13:04:42;;;;;;;0.50;0.50;;;;;;;;;;5034278;28;20757;-66
2021/11/18 13:07:28;;;;;;;0.50;0.50;;;;;;;;;;5034140;28;20196;-66
2021/11/18 13:10:09;;;;;;;0.50;0.50;;;;;;;;;;5013132;28;20193;-66
2021/11/18 13:12:35;;;;;;;0.40;0.40;;;;;;;;;;5034043;28;20643;-66
2021/11/18 13:15:04;;;;;;;0.40;0.40;;;;;;;;;;5033965;28;20756;-63
2021/11/18 13:17:33;;;;;;;0.40;0.40;;;;;;;;;;5033916;28;20228;-66
2021/11/18 13:20:08;;;;;;;0.50;0.50;;;;;;;;;;5033748;28;20231;-65
2021/11/18 13:22:54;;;;;;;0.40;0.40;;;;;;;;;;5033910;28;20169;-65
2021/11/18 13:25:22;;;;;;;0.50;0.50;;;;;;;;;;5033485;28;20196;-65
2021/11/18 13:27:59;;;;;;;0.50;0.50;;;;;;;;;;5033782;28;20188;-65
2021/11/18 13:30:35;;;;;;;0.40;0.40;;;;;;;;;;5033286;28;20177;-65
2021/11/18 13:33:21;;;;;;;0.40;0.40;;;;;;;;;;5033584;28;20667;-65
2021/11/18 13:35:56;;;;;;;0.40;0.40;;;;;;;;;;5026751;28;20235;-65
2021/11/18 13:38:23;;;;;;;0.40;0.40;;;;;;;;;;5033619;28;20256;-65
2021/11/18 13:41:01;;;;;;;0.40;0.40;;;;;;;;;;5033013;28;20247;-66
2021/11/18 13:43:31;;;;;;;0.40;0.40;;;;;;;;;;5033468;28;20173;-65
2021/11/18 13:46:03;;;;;;;0.40;0.40;;;;;;;;;;5033480;28;20265;-65
2021/11/18 13:48:39;;;;;;;0.40;0.40;;;;;;;;;;5033363;28;20192;-65
2021/11/18 13:51:05;;;;;;;0.50;0.50;;;;;;;;;;5033204;28;20266;-65
2021/11/18 13:53:40;;;;;;;0.50;0.50;;;;;;;;;;5033330;28;20216;-65
2021/11/18 13:56:08;;;;;;;0.50;0.50;;;;;;;;;;5033273;28;20399;-65
2021/11/18 13:58:48;;;;;;;0.40;0.40;;;;;;;;;;5033146;28;20270;-65
2021/11/18 14:01:16;;;;;;;0.40;0.40;;;;;;;;;;5032923;28;20197;-65
2021/11/18 14:03:47;;;;;;;0.50;0.50;;;;;;;;;;5033099;28;20207;-66
2021/11/18 14:06:15;;;;;;;0.50;0.50;;;;;;;;;;5033256;28;20184;-65
2021/11/18 14:08:43;;;;;;;0.40;0.40;;;;;;;;;;5032718;28;20216;-65
2021/11/18 14:11:14;;;;;;;0.40;0.40;;;;;;;;;;5032792;28;20710;-65
2021/11/18 14:13:42;;;;;;;0.50;0.50;;;;;;;;;;5032910;28;20577;-65
2021/11/18 14:16:14;;;;;;;0.50;0.50;;;;;;;;;;5032862;28;20672;-65
2021/11/18 14:19:13;;;;;;;0.50;0.50;;;;;;;;;;5032650;28;20196;-65
2021/11/18 14:22:01;;;;;;;0.40;0.40;;;;;;;;;;5009890;28;20624;-65
2021/11/18 14:24:45;;;;;;;0.40;0.40;;;;;;;;;;5032621;28;20744;-65
2021/11/18 14:27:14;;;;;;;0.40;0.40;;;;;;;;;;5030653;28;20239;-66
2021/11/18 14:29:43;;;;;;;0.40;0.40;;;;;;;;;;5032428;28;20184;-65
2021/11/18 14:32:19;;;;;;;0.40;0.40;;;;;;;;;;5032264;28;20583;-65
2021/11/18 14:34:50;;;;;;;0.40;0.40;;;;;;;;;;5032542;28;20174;-65
2021/11/18 14:37:24;;;;;;;0.40;0.40;;;;;;;;;;5031749;28;20250;-65
2021/11/18 14:39:51;;;;;;;0.40;0.40;;;;;;;;;;5031998;28;20185;-65
2021/11/18 14:42:17;;;;;;;0.40;0.40;;;;;;;;;;5032092;28;20183;-65
2021/11/18 14:44:46;;;;;;;0.40;0.40;;;;;;;;;;5031680;28;20811;-65
2021/11/18 14:47:38;;;;;;;0.50;0.50;;;;;;;;;;5031985;28;21142;-65
2021/11/18 14:50:10;;;;;;;0.40;0.40;;;;;;;;;;5029173;28;20197;-65
2021/11/18 14:52:38;;;;;;;0.40;0.40;;;;;;;;;;5031865;28;20175;-65
2021/11/18 14:55:07;;;;;;;0.40;0.40;;;;;;;;;;5032168;28;20223;-65